Time;durP1;ratioP1;P1;durP2;ratioP2;P2;SDS_P1;SDS_P2;PMS_P1;PMS_P2;Temp;Humidity;BMP_temperature;BMP_pressure;BME280_temperature;BME280_humidity;BME280_pressure;Samples;Min_cycle;Max_cycle;Signal;HPM_P1;HPM_P2
2022/10/15 00:00:33;;;;;;;85.50;43.70;;;12.20;99.90;;;;;;5041559;28;20155;-79
2022/10/15 00:02:58;;;;;;;83.07;42.25;;;12.30;99.90;;;;;;5075625;28;20218;-79
2022/10/15 00:05:24;;;;;;;85.95;44.03;;;12.20;99.90;;;;;;5059393;28;20048;-78
2022/10/15 00:07:50;;;;;;;94.43;44.22;;;12.20;99.90;;;;;;5072266;28;20040;-76
2022/10/15 00:10:16;;;;;;;89.10;43.83;;;12.20;99.90;;;;;;5067029;28;20036;-77
2022/10/15 00:12:42;;;;;;;87.90;42.97;;;12.30;99.90;;;;;;5060036;28;20371;-77
2022/10/15 00:15:09;;;;;;;85.53;43.90;;;12.30;99.90;;;;;;5042700;28;20041;-77
2022/10/15 00:17:36;;;;;;;84.03;44.03;;;12.30;99.90;;;;;;5056595;28;20124;-77
2022/10/15 00:20:07;;;;;;;91.55;46.15;;;12.30;99.90;;;;;;5070900;28;20521;-78
2022/10/15 00:22:33;;;;;;;92.20;46.03;;;12.20;99.90;;;;;;5058747;28;20044;-76
2022/10/15 00:24:58;;;;;;;90.47;46.80;;;12.30;99.90;;;;;;5057697;28;20369;-79
2022/10/15 00:27:24;;;;;;;86.90;45.30;;;12.20;99.90;;;;;;5058639;28;20059;-78
2022/10/15 00:29:50;;;;;;;90.38;46.17;;;12.20;99.90;;;;;;5036715;28;20036;-78
2022/10/15 00:32:16;;;;;;;90.38;45.30;;;12.30;99.90;;;;;;5038660;28;20040;-77
2022/10/15 00:34:41;;;;;;;87.28;45.53;;;12.20;99.90;;;;;;5069822;28;20036;-77
2022/10/15 00:37:08;;;;;;;91.00;47.30;;;12.30;99.90;;;;;;5074689;28;20127;-79
2022/10/15 00:39:34;;;;;;;85.35;46.10;;;12.30;99.90;;;;;;5070309;28;20107;-78
2022/10/15 00:42:00;;;;;;;96.65;47.65;;;12.30;99.90;;;;;;5047246;28;20418;-79
2022/10/15 00:44:28;;;;;;;87.43;45.17;;;12.30;99.90;;;;;;5065247;28;20060;-79
2022/10/15 00:47:15;;;;;;;91.30;46.88;;;12.20;99.90;;;;;;5065590;28;20351;-80
2022/10/15 00:49:52;;;;;;;89.95;45.92;;;12.30;99.90;;;;;;5058039;28;20040;-77
2022/10/15 00:52:28;;;;;;;90.28;46.53;;;12.30;99.90;;;;;;5058135;28;20044;-76
2022/10/15 00:55:04;;;;;;;89.72;46.33;;;12.30;99.90;;;;;;5057173;28;20047;-77
2022/10/15 00:57:31;;;;;;;88.07;46.13;;;12.40;99.90;;;;;;5075519;28;20152;-78
2022/10/15 01:00:00;;;;;;;88.50;45.85;;;12.30;99.90;;;;;;5057003;28;20045;-77
2022/10/15 01:02:26;;;;;;;95.95;46.83;;;12.30;99.90;;;;;;5054518;28;20036;-76
2022/10/15 01:04:52;;;;;;;92.95;46.28;;;12.30;99.90;;;;;;5054204;28;20043;-79
2022/10/15 01:07:18;;;;;;;93.00;46.28;;;12.30;99.90;;;;;;5089375;28;20043;-76
2022/10/15 01:09:45;;;;;;;94.55;47.40;;;12.20;99.90;;;;;;5072361;28;20044;-76
2022/10/15 01:12:25;;;;;;;95.15;46.90;;;12.20;99.90;;;;;;5057161;28;20038;-76
2022/10/15 01:15:04;;;;;;;85.55;47.10;;;12.20;99.90;;;;;;5055918;28;20036;-78
2022/10/15 01:17:58;;;;;;;99.18;47.38;;;12.30;99.90;;;;;;5069729;28;20041;-77
2022/10/15 01:20:35;;;;;;;89.97;47.30;;;12.30;99.90;;;;;;5053695;28;20494;-76
2022/10/15 01:23:23;;;;;;;91.65;46.47;;;12.30;99.90;;;;;;5045483;28;20036;-79
2022/10/15 01:25:54;;;;;;;94.63;46.97;;;12.30;99.90;;;;;;5057653;28;20063;-76
2022/10/15 01:28:42;;;;;;;91.43;46.65;;;12.30;99.90;;;;;;5055724;28;20051;-78
2022/10/15 01:31:35;;;;;;;91.32;46.20;;;12.40;99.90;;;;;;5046577;28;20127;-77
2022/10/15 01:34:03;;;;;;;83.47;44.95;;;12.30;99.90;;;;;;5074056;28;20123;-77
2022/10/15 01:36:36;;;;;;;88.43;44.00;;;12.30;99.90;;;;;;5074215;28;20047;-77
2022/10/15 01:39:29;;;;;;;77.85;42.30;;;12.20;99.90;;;;;;5054552;28;20071;-76
2022/10/15 01:42:05;;;;;;;95.28;43.92;;;12.20;99.90;;;;;;5057849;28;20483;-78
2022/10/15 01:44:35;;;;;;;88.50;43.75;;;12.20;99.90;;;;;;5064363;28;20047;-77
2022/10/15 01:47:07;;;;;;;77.03;42.40;;;12.20;99.90;;;;;;5023251;28;20159;-78
2022/10/15 01:49:37;;;;;;;;;;;12.20;99.90;;;;;;5075028;28;20036;-77
2022/10/15 01:52:11;;;;;;;76.50;41.03;;;12.20;99.90;;;;;;5038799;28;19923;-80
2022/10/15 01:54:39;;;;;;;87.25;43.08;;;12.20;99.90;;;;;;5053993;28;20085;-78
2022/10/15 01:57:06;;;;;;;89.57;43.72;;;12.20;99.90;;;;;;5037033;28;20040;-79
2022/10/15 01:59:32;;;;;;;90.32;43.22;;;12.20;99.90;;;;;;5015022;28;20068;-78
2022/10/15 02:01:58;;;;;;;88.30;43.05;;;12.20;99.90;;;;;;5038533;28;20037;-80
2022/10/15 02:04:26;;;;;;;79.80;41.70;;;12.20;99.90;;;;;;5053188;28;20377;-76
2022/10/15 02:07:05;;;;;;;86.72;42.28;;;12.10;99.90;;;;;;5050315;28;20094;-77
2022/10/15 02:09:48;;;;;;;86.88;42.60;;;12.20;99.90;;;;;;5031087;28;20040;-78
2022/10/15 02:12:25;;;;;;;83.13;41.33;;;12.20;99.90;;;;;;5034273;28;20113;-79
2022/10/15 02:15:15;;;;;;;89.55;42.15;;;12.10;99.90;;;;;;5042391;28;20036;-77
2022/10/15 02:18:30;;;;;;;80.38;41.30;;;12.20;99.90;;;;;;5047513;28;20041;-80
2022/10/15 02:21:11;;;;;;;85.95;40.95;;;12.10;99.90;;;;;;4976753;28;20074;-77
2022/10/15 02:23:57;;;;;;;78.60;40.25;;;12.20;99.90;;;;;;4994866;28;20046;-76
2022/10/15 02:26:26;;;;;;;84.45;41.08;;;12.20;99.90;;;;;;4994510;28;20046;-77
2022/10/15 02:28:54;;;;;;;80.70;40.85;;;12.10;99.90;;;;;;4993044;28;20053;-79
2022/10/15 02:31:24;;;;;;;86.60;42.50;;;12.10;99.90;;;;;;4992766;28;20061;-78
2022/10/15 02:33:54;;;;;;;81.63;41.00;;;12.10;99.90;;;;;;4991028;28;20444;-78
2022/10/15 02:36:20;;;;;;;84.70;41.90;;;12.10;99.90;;;;;;4997318;28;20141;-77
2022/10/15 02:38:46;;;;;;;80.75;40.95;;;12.20;99.90;;;;;;4985656;28;20882;-78
2022/10/15 02:41:13;;;;;;;78.72;39.88;;;12.10;99.90;;;;;;4970136;28;20117;-79
2022/10/15 02:43:40;;;;;;;83.28;40.15;;;12.10;99.90;;;;;;5011774;28;20061;-76
2022/10/15 02:46:09;;;;;;;77.72;39.45;;;12.10;99.90;;;;;;4996851;28;20391;-80
2022/10/15 02:48:34;;;;;;;73.15;39.20;;;12.10;99.90;;;;;;4996993;28;20050;-78
2022/10/15 02:51:00;;;;;;;77.50;38.80;;;12.10;99.90;;;;;;4996611;28;20069;-77
2022/10/15 02:53:25;;;;;;;77.38;39.50;;;12.00;99.90;;;;;;4981067;28;20053;-77
2022/10/15 02:55:51;;;;;;;84.70;40.92;;;11.90;99.90;;;;;;5007906;28;20053;-78
2022/10/15 02:58:17;;;;;;;78.43;39.33;;;12.00;99.90;;;;;;5025246;28;20123;-78
2022/10/15 03:00:42;;;;;;;80.30;39.65;;;12.10;99.90;;;;;;5053843;28;20044;-77
2022/10/15 03:03:09;;;;;;;77.00;40.17;;;12.10;99.90;;;;;;5040596;28;20033;-79
2022/10/15 03:05:35;;;;;;;79.32;39.95;;;12.00;99.90;;;;;;5057142;28;20245;-79
2022/10/15 03:08:00;;;;;;;74.40;39.42;;;11.90;99.90;;;;;;5054264;28;20032;-77
2022/10/15 03:10:26;;;;;;;72.72;38.92;;;12.00;99.90;;;;;;5056935;28;20127;-77
2022/10/15 03:12:55;;;;;;;73.90;38.80;;;12.00;99.90;;;;;;5074182;28;20044;-76
2022/10/15 03:15:22;;;;;;;79.00;40.47;;;12.00;99.90;;;;;;5041183;28;20143;-75
2022/10/15 03:17:47;;;;;;;83.57;39.97;;;12.10;99.90;;;;;;5060886;28;20043;-79
2022/10/15 03:20:13;;;;;;;72.53;38.45;;;12.00;99.90;;;;;;5059929;28;20041;-77
2022/10/15 03:22:38;;;;;;;74.63;38.90;;;12.00;99.90;;;;;;5056749;28;20036;-78
2022/10/15 03:25:04;;;;;;;79.88;40.08;;;12.10;99.90;;;;;;5036585;28;20033;-79
2022/10/15 03:27:30;;;;;;;75.47;38.67;;;12.10;99.90;;;;;;5023176;28;20455;-77
2022/10/15 03:29:56;;;;;;;80.65;39.60;;;12.10;99.90;;;;;;5049870;28;20087;-78
2022/10/15 03:32:21;;;;;;;81.32;41.00;;;12.10;99.90;;;;;;5035149;28;20141;-78
2022/10/15 03:34:47;;;;;;;82.00;40.50;;;12.00;99.90;;;;;;5049885;28;20470;-76
2022/10/15 03:37:12;;;;;;;66.38;37.92;;;12.10;99.90;;;;;;5053958;28;20066;-78
2022/10/15 03:39:38;;;;;;;71.65;38.58;;;12.10;99.90;;;;;;5039237;28;20729;-77
2022/10/15 03:42:04;;;;;;;73.03;38.55;;;12.10;99.90;;;;;;5062666;28;20052;-78
2022/10/15 03:44:33;;;;;;;71.85;39.20;;;12.10;99.90;;;;;;5075199;28;20044;-78
2022/10/15 03:46:59;;;;;;;76.55;38.50;;;12.10;99.90;;;;;;5056807;28;20052;-77
2022/10/15 03:49:24;;;;;;;68.85;38.10;;;12.10;99.90;;;;;;5057611;28;20060;-77
2022/10/15 03:51:50;;;;;;;72.20;36.83;;;12.10;99.90;;;;;;5055733;28;20415;-77
2022/10/15 03:54:16;;;;;;;78.05;38.60;;;12.00;99.90;;;;;;5091394;28;20093;-77
2022/10/15 03:56:41;;;;;;;77.03;38.67;;;12.00;99.90;;;;;;5075972;28;20036;-80
2022/10/15 03:59:07;;;;;;;72.30;37.47;;;12.10;99.90;;;;;;5058512;28;20115;-79
2022/10/15 04:01:33;;;;;;;76.72;38.08;;;12.10;99.90;;;;;;5056144;28;20040;-79
2022/10/15 04:03:58;;;;;;;69.65;38.78;;;12.10;99.90;;;;;;5059528;28;20037;-77
2022/10/15 04:06:24;;;;;;;79.53;38.22;;;12.10;99.90;;;;;;5039470;28;20048;-76
2022/10/15 04:08:49;;;;;;;73.40;37.95;;;12.10;99.90;;;;;;5048159;28;20051;-79
2022/10/15 04:11:15;;;;;;;77.38;39.95;;;12.10;99.90;;;;;;5074712;28;20479;-78
2022/10/15 04:13:41;;;;;;;87.07;39.83;;;12.00;99.90;;;;;;5055300;28;20468;-77
2022/10/15 04:16:06;;;;;;;84.35;40.08;;;12.10;99.90;;;;;;5058073;28;20492;-77
2022/10/15 04:18:32;;;;;;;87.15;42.45;;;12.10;99.90;;;;;;5057238;28;20233;-81
2022/10/15 04:20:59;;;;;;;89.85;42.05;;;12.10;99.90;;;;;;5067965;28;20042;-78
2022/10/15 04:23:25;;;;;;;83.47;41.58;;;12.20;99.90;;;;;;5058503;28;20044;-80
2022/10/15 04:25:50;;;;;;;91.13;41.05;;;12.10;99.90;;;;;;5058250;28;20047;-79
2022/10/15 04:28:16;;;;;;;100.05;43.70;;;12.10;99.90;;;;;;5056302;28;20052;-78
2022/10/15 04:30:41;;;;;;;93.75;42.53;;;12.10;99.90;;;;;;5073979;28;20097;-76
2022/10/15 04:33:08;;;;;;;96.97;43.97;;;12.20;99.90;;;;;;5058867;28;20118;-79
2022/10/15 04:35:34;;;;;;;93.55;42.90;;;12.10;99.90;;;;;;5067892;28;20032;-76
2022/10/15 04:38:00;;;;;;;95.90;43.45;;;12.20;99.90;;;;;;5066903;28;20123;-79
2022/10/15 04:40:26;;;;;;;94.30;43.67;;;12.10;99.90;;;;;;5076111;28;20585;-77
2022/10/15 04:42:52;;;;;;;95.57;42.28;;;12.20;99.90;;;;;;5077752;28;20060;-76
2022/10/15 04:45:50;;;;;;;99.05;43.38;;;12.20;99.90;;;;;;5114978;28;20047;-78
2022/10/15 04:48:16;;;;;;;98.05;44.33;;;12.10;99.90;;;;;;5056986;28;20056;-79
2022/10/15 04:50:41;;;;;;;103.28;44.08;;;12.10;99.90;;;;;;5060407;28;20391;-77
2022/10/15 04:53:07;;;;;;;90.63;43.33;;;12.10;99.90;;;;;;5075096;28;20152;-78
2022/10/15 04:55:32;;;;;;;99.05;42.95;;;12.10;99.90;;;;;;5074673;28;20040;-78
2022/10/15 04:57:58;;;;;;;91.25;43.38;;;12.00;99.90;;;;;;5056997;28;20043;-77
2022/10/15 05:00:24;;;;;;;89.85;42.95;;;12.10;99.90;;;;;;5057953;28;20047;-78
2022/10/15 05:02:49;;;;;;;89.72;42.38;;;12.10;99.90;;;;;;5055550;28;20044;-76
2022/10/15 05:05:15;;;;;;;88.47;42.17;;;12.00;99.90;;;;;;5063782;28;20063;-77
2022/10/15 05:07:40;;;;;;;89.07;42.00;;;12.10;99.90;;;;;;5070702;28;20470;-76
2022/10/15 05:10:07;;;;;;;94.00;43.08;;;12.00;99.90;;;;;;5074985;28;20048;-79
2022/10/15 05:12:32;;;;;;;92.47;42.90;;;12.00;99.90;;;;;;5074717;28;20048;-79
2022/10/15 05:14:58;;;;;;;81.78;40.55;;;11.90;99.90;;;;;;5057215;28;20044;-76
2022/10/15 05:17:24;;;;;;;78.50;40.75;;;11.90;99.90;;;;;;5074052;28;20040;-77
2022/10/15 05:19:49;;;;;;;86.35;40.33;;;11.90;99.90;;;;;;5057596;28;20051;-77
2022/10/15 05:22:15;;;;;;;78.45;40.03;;;11.80;99.90;;;;;;5076988;28;20040;-78
2022/10/15 05:24:40;;;;;;;84.15;41.33;;;11.90;99.90;;;;;;5069709;28;20036;-79
2022/10/15 05:27:06;;;;;;;78.25;41.20;;;12.00;99.90;;;;;;5056154;28;20044;-76
2022/10/15 05:29:32;;;;;;;77.97;39.40;;;11.90;99.90;;;;;;5056024;28;20049;-78
2022/10/15 05:31:58;;;;;;;83.95;40.65;;;11.90;99.90;;;;;;5073466;28;20123;-77
2022/10/15 05:34:25;;;;;;;83.60;39.78;;;11.80;99.90;;;;;;5073413;28;20132;-77
2022/10/15 05:36:51;;;;;;;87.15;41.10;;;11.80;99.90;;;;;;5057288;28;20132;-77
2022/10/15 05:39:16;;;;;;;78.40;40.05;;;11.80;99.90;;;;;;5056451;28;20074;-75
2022/10/15 05:41:42;;;;;;;90.30;40.72;;;11.80;99.90;;;;;;5063472;28;20476;-78
2022/10/15 05:44:11;;;;;;;82.68;41.10;;;11.80;99.90;;;;;;5057049;28;20047;-78
2022/10/15 05:46:37;;;;;;;75.00;40.92;;;11.80;99.90;;;;;;5072601;28;20044;-79
2022/10/15 05:49:03;;;;;;;88.60;42.47;;;11.80;99.90;;;;;;5054859;28;20039;-80
2022/10/15 05:51:29;;;;;;;79.85;41.75;;;11.80;99.90;;;;;;5073918;28;20047;-79
2022/10/15 05:53:56;;;;;;;82.70;43.13;;;11.90;99.90;;;;;;5073337;28;20196;-79
2022/10/15 05:56:22;;;;;;;93.35;43.33;;;11.80;99.90;;;;;;5073932;28;20036;-78
2022/10/15 05:58:49;;;;;;;99.32;43.97;;;11.90;99.90;;;;;;5045764;28;20036;-79
2022/10/15 06:01:15;;;;;;;89.65;44.78;;;11.70;99.90;;;;;;5038381;28;20036;-80
2022/10/15 06:03:41;;;;;;;107.68;46.58;;;11.80;99.90;;;;;;5081251;28;20043;-78
2022/10/15 06:06:14;;;;;;;93.45;46.42;;;11.80;99.90;;;;;;5073779;28;20044;-77
2022/10/15 06:08:40;;;;;;;103.50;47.78;;;11.80;99.90;;;;;;5067283;28;20517;-77
2022/10/15 06:11:05;;;;;;;102.85;48.53;;;11.90;99.90;;;;;;5054186;28;20044;-79
2022/10/15 06:13:31;;;;;;;105.65;48.50;;;11.90;99.90;;;;;;5055914;28;20087;-76
2022/10/15 06:15:57;;;;;;;109.68;50.60;;;11.80;99.90;;;;;;5057305;28;20040;-79
2022/10/15 06:18:22;;;;;;;101.68;48.50;;;11.90;99.90;;;;;;5094376;28;20028;-77
2022/10/15 06:20:51;;;;;;;109.40;49.28;;;11.90;99.90;;;;;;5067659;28;20052;-76
2022/10/15 06:23:18;;;;;;;109.07;49.90;;;11.80;99.90;;;;;;5090377;28;20127;-77
2022/10/15 06:25:43;;;;;;;116.63;51.70;;;12.00;99.90;;;;;;5072761;28;20052;-79
2022/10/15 06:28:09;;;;;;;117.53;52.70;;;11.80;99.90;;;;;;5055828;28;20048;-78
2022/10/15 06:30:35;;;;;;;118.75;52.83;;;11.90;99.90;;;;;;5063407;28;20072;-79
2022/10/15 06:33:03;;;;;;;108.30;52.22;;;11.90;99.90;;;;;;5055731;28;20044;-78
2022/10/15 06:35:34;;;;;;;117.45;52.72;;;11.90;99.90;;;;;;5068063;28;20075;-80
2022/10/15 06:38:01;;;;;;;114.20;52.08;;;12.00;99.90;;;;;;5045819;28;20495;-76
2022/10/15 06:40:26;;;;;;;109.82;50.65;;;12.00;99.90;;;;;;5073532;28;20077;-79
2022/10/15 06:42:52;;;;;;;117.65;53.22;;;12.00;99.90;;;;;;5039774;28;20068;-79
2022/10/15 06:45:18;;;;;;;111.93;51.28;;;12.00;99.90;;;;;;5073053;28;20359;-78
2022/10/15 06:47:44;;;;;;;116.13;52.65;;;11.90;99.90;;;;;;5069694;28;20059;-77
2022/10/15 06:50:10;;;;;;;113.97;52.10;;;11.90;99.90;;;;;;5057139;28;20047;-78
2022/10/15 06:52:37;;;;;;;108.68;51.80;;;12.10;99.90;;;;;;5053099;28;20049;-76
2022/10/15 06:55:03;;;;;;;109.88;51.75;;;12.00;99.90;;;;;;5056835;28;20047;-78
2022/10/15 06:57:29;;;;;;;105.95;50.92;;;12.10;99.90;;;;;;5073627;28;20043;-76
2022/10/15 06:59:55;;;;;;;116.45;52.60;;;12.00;99.90;;;;;;5070896;28;20036;-78
2022/10/15 07:02:21;;;;;;;116.13;52.30;;;12.00;99.90;;;;;;5021575;28;20037;-76
2022/10/15 07:04:47;;;;;;;112.60;52.15;;;12.10;99.90;;;;;;5053524;28;20454;-79
2022/10/15 07:07:13;;;;;;;115.50;54.83;;;12.10;99.90;;;;;;5043229;28;20068;-76
2022/10/15 07:09:39;;;;;;;112.38;53.00;;;12.10;99.90;;;;;;5063015;28;20055;-78
2022/10/15 07:12:05;;;;;;;109.97;52.38;;;12.20;99.90;;;;;;5078278;28;20130;-77
2022/10/15 07:14:31;;;;;;;112.68;52.80;;;12.20;99.90;;;;;;5075990;28;20040;-80
2022/10/15 07:16:58;;;;;;;115.03;53.63;;;12.20;99.90;;;;;;5074710;28;20032;-77
2022/10/15 07:19:24;;;;;;;121.13;53.72;;;12.20;99.90;;;;;;5056036;28;20120;-78
2022/10/15 07:21:49;;;;;;;115.03;53.13;;;12.20;99.90;;;;;;5058318;28;20044;-78
2022/10/15 07:24:15;;;;;;;111.88;53.03;;;12.30;99.90;;;;;;5091554;28;20494;-78
2022/10/15 07:26:41;;;;;;;120.00;55.55;;;12.20;99.90;;;;;;5056759;28;20434;-78
2022/10/15 07:29:06;;;;;;;114.13;53.50;;;12.40;99.90;;;;;;5051743;28;20074;-78
2022/10/15 07:31:32;;;;;;;119.15;54.20;;;12.30;99.90;;;;;;5041374;28;20130;-77
2022/10/15 07:34:02;;;;;;;112.95;52.70;;;12.40;99.90;;;;;;5044223;28;20109;-76
2022/10/15 07:36:28;;;;;;;120.50;54.22;;;12.40;99.90;;;;;;5075501;28;20483;-77
2022/10/15 07:38:53;;;;;;;108.45;52.90;;;12.40;99.90;;;;;;5067396;28;20055;-75
2022/10/15 07:41:19;;;;;;;117.75;53.15;;;12.40;99.90;;;;;;5059534;28;20043;-78
2022/10/15 07:43:45;;;;;;;114.90;53.47;;;12.50;99.90;;;;;;5058991;28;20044;-75
2022/10/15 07:46:10;;;;;;;112.15;51.83;;;12.50;99.90;;;;;;5060220;28;20055;-79
2022/10/15 07:48:36;;;;;;;109.50;52.20;;;12.50;99.90;;;;;;5076994;28;20067;-77
2022/10/15 07:51:06;;;;;;;110.85;51.97;;;12.50;99.90;;;;;;5062699;28;20050;-79
2022/10/15 07:53:33;;;;;;;115.82;52.55;;;12.60;99.90;;;;;;5060006;28;20127;-77
2022/10/15 07:56:00;;;;;;;106.57;52.25;;;12.70;99.90;;;;;;5052532;28;20711;-79
2022/10/15 07:58:27;;;;;;;104.07;52.67;;;12.70;99.90;;;;;;5042001;28;20039;-78
2022/10/15 08:00:53;;;;;;;121.65;52.20;;;12.80;99.90;;;;;;5076111;28;20043;-80
2022/10/15 08:03:18;;;;;;;101.93;50.28;;;12.70;99.90;;;;;;5075147;28;20040;-80
2022/10/15 08:05:44;;;;;;;103.78;51.10;;;12.90;99.90;;;;;;5092728;28;20047;-79
2022/10/15 08:08:09;;;;;;;102.75;50.75;;;12.90;99.90;;;;;;5054465;28;20048;-79
2022/10/15 08:10:35;;;;;;;96.93;49.47;;;12.80;99.90;;;;;;5055633;28;20391;-78
2022/10/15 08:13:01;;;;;;;111.53;52.38;;;12.90;99.90;;;;;;5057598;28;20044;-77
2022/10/15 08:15:26;;;;;;;92.78;50.08;;;13.00;99.90;;;;;;5067725;28;20043;-79
2022/10/15 08:17:52;;;;;;;103.93;51.33;;;13.10;99.90;;;;;;5074724;28;20060;-79
2022/10/15 08:20:18;;;;;;;92.68;46.15;;;13.20;99.90;;;;;;5058661;28;20043;-79
2022/10/15 08:22:44;;;;;;;97.63;51.13;;;13.20;99.90;;;;;;5038921;28;20476;-78
2022/10/15 08:25:10;;;;;;;100.32;50.30;;;13.20;99.90;;;;;;5038839;28;20040;-77
2022/10/15 08:27:36;;;;;;;102.38;51.85;;;13.20;99.90;;;;;;5073591;28;20502;-76
2022/10/15 08:30:02;;;;;;;97.45;50.28;;;13.30;99.90;;;;;;5062951;28;20037;-80
2022/10/15 08:32:28;;;;;;;99.25;50.67;;;13.30;99.90;;;;;;5078466;28;20093;-77
2022/10/15 08:34:54;;;;;;;86.07;47.30;;;13.40;99.90;;;;;;5058392;28;20060;-79
2022/10/15 08:37:19;;;;;;;92.80;48.20;;;13.40;99.90;;;;;;5075471;28;20055;-78
2022/10/15 08:39:45;;;;;;;87.65;46.25;;;13.50;99.90;;;;;;5057706;28;20044;-76
2022/10/15 08:42:34;;;;;;;90.10;47.72;;;13.60;99.90;;;;;;5092179;28;20059;-79
2022/10/15 08:45:10;;;;;;;85.60;45.88;;;13.50;99.90;;;;;;5053377;28;20114;-77
2022/10/15 08:47:42;;;;;;;89.43;45.42;;;13.60;99.90;;;;;;5052653;28;20036;-78
2022/10/15 08:50:40;;;;;;;78.78;43.40;;;13.50;99.90;;;;;;5087649;28;20538;-79
2022/10/15 08:53:13;;;;;;;82.47;44.10;;;13.50;99.90;;;;;;5011009;28;20158;-77
2022/10/15 08:55:42;;;;;;;87.65;46.42;;;13.60;99.90;;;;;;4991476;28;20498;-77
2022/10/15 08:58:21;;;;;;;83.18;45.38;;;13.60;99.90;;;;;;4961213;28;20089;-77
2022/10/15 09:00:51;;;;;;;93.03;48.70;;;13.70;99.90;;;;;;4975224;28;20209;-77
2022/10/15 09:03:28;;;;;;;87.70;47.67;;;13.70;99.90;;;;;;5007964;28;20046;-79
2022/10/15 09:06:23;;;;;;;89.13;47.83;;;13.70;99.90;;;;;;4994452;28;20151;-80
2022/10/15 09:09:19;;;;;;;91.78;50.40;;;13.80;99.90;;;;;;4969539;28;20049;-77
2022/10/15 09:12:03;;;;;;;88.43;50.08;;;13.90;99.90;;;;;;4994293;28;20085;-79
2022/10/15 09:14:36;;;;;;;88.38;49.53;;;13.90;99.90;;;;;;5009780;28;20145;-75
2022/10/15 09:20:42;;;;;;;73.90;43.30;;;13.90;99.90;;;;;;5011160;28;20057;-78
2022/10/15 09:23:16;;;;;;;76.13;44.28;;;14.00;99.90;;;;;;5013947;28;20074;-78
2022/10/15 09:25:46;;;;;;;78.13;43.40;;;13.90;99.90;;;;;;4994513;28;20523;-76
2022/10/15 09:28:17;;;;;;;68.55;42.40;;;13.90;99.90;;;;;;4987553;28;20042;-76
2022/10/15 09:30:51;;;;;;;64.57;40.42;;;14.00;99.90;;;;;;5049487;28;20475;-77
2022/10/15 09:33:20;;;;;;;72.03;41.92;;;14.00;99.90;;;;;;5049989;28;20037;-77
2022/10/15 09:36:13;;;;;;;74.88;43.22;;;14.00;99.90;;;;;;5052205;28;20529;-78
2022/10/15 09:38:49;;;;;;;67.80;41.47;;;14.00;99.90;;;;;;5052565;28;20398;-78
2022/10/15 09:41:21;;;;;;;65.72;38.45;;;13.80;99.90;;;;;;5057590;28;20044;-79
2022/10/15 09:43:54;;;;;;;54.63;34.05;;;13.90;99.90;;;;;;5036453;28;20045;-79
2022/10/15 09:46:20;;;;;;;51.17;33.28;;;14.00;99.90;;;;;;5036899;28;20060;-78
2022/10/15 09:49:06;;;;;;;54.22;34.80;;;13.80;99.90;;;;;;5031648;28;20136;-77
2022/10/15 09:52:06;;;;;;;54.45;32.47;;;13.80;99.90;;;;;;5054245;28;20048;-79
2022/10/15 09:54:40;;;;;;;49.25;32.00;;;13.80;99.90;;;;;;5054260;28;20171;-79
2022/10/15 09:57:11;;;;;;;54.80;34.40;;;13.80;99.90;;;;;;5050438;28;20111;-77
2022/10/15 09:59:37;;;;;;;56.75;32.85;;;13.80;99.90;;;;;;5037502;28;20037;-78
2022/10/15 10:02:15;;;;;;;59.97;34.95;;;13.60;99.90;;;;;;5046442;28;20048;-77
2022/10/15 10:04:40;;;;;;;65.88;36.08;;;13.60;99.90;;;;;;5044346;28;20163;-78
2022/10/15 10:07:07;;;;;;;63.90;36.42;;;13.70;99.90;;;;;;5050662;28;20092;-80
2022/10/15 10:09:53;;;;;;;60.03;35.65;;;13.70;99.90;;;;;;5031475;28;20407;-81
2022/10/15 10:12:26;;;;;;;62.78;34.00;;;13.60;99.90;;;;;;5038270;28;20048;-78
2022/10/15 10:15:02;;;;;;;61.28;35.80;;;13.50;99.90;;;;;;5017282;28;20033;-79
2022/10/15 10:17:28;;;;;;;66.50;35.55;;;13.60;99.90;;;;;;5045030;28;20041;-78
2022/10/15 10:20:13;;;;;;;68.10;35.28;;;13.60;99.90;;;;;;5037253;28;20443;-77
2022/10/15 10:22:51;;;;;;;67.95;36.63;;;13.50;99.90;;;;;;5036791;28;20128;-78
2022/10/15 10:25:26;;;;;;;72.65;37.40;;;13.60;99.90;;;;;;5026616;28;20119;-77
2022/10/15 10:28:12;;;;;;;71.85;36.72;;;13.50;99.90;;;;;;5040695;28;20410;-77
2022/10/15 10:31:07;;;;;;;66.45;35.65;;;13.70;99.90;;;;;;5053504;28;20085;-81
2022/10/15 10:33:43;;;;;;;59.75;33.67;;;13.70;99.90;;;;;;5018863;28;20040;-81
2022/10/15 10:36:33;;;;;;;56.60;32.65;;;13.80;99.90;;;;;;5017213;28;20080;-78
2022/10/15 10:39:02;;;;;;;57.90;32.03;;;13.90;99.90;;;;;;5033194;28;20041;-80
2022/10/15 10:41:52;;;;;;;53.25;31.27;;;14.00;99.90;;;;;;5052938;28;20124;-80
2022/10/15 10:44:39;;;;;;;45.63;27.00;;;13.80;99.90;;;;;;5077297;28;20048;-79
2022/10/15 10:47:34;;;;;;;45.22;27.08;;;13.80;99.90;;;;;;5072496;28;20087;-77
2022/10/15 10:50:00;;;;;;;43.00;25.55;;;13.90;99.90;;;;;;5041861;28;20033;-79
2022/10/15 10:52:30;;;;;;;43.78;25.23;;;14.00;99.90;;;;;;5059216;28;20128;-76
2022/10/15 10:55:06;;;;;;;34.75;23.52;;;14.20;99.90;;;;;;5057314;28;20183;-78
2022/10/15 10:57:48;;;;;;;39.13;22.85;;;14.40;99.90;;;;;;5058930;28;20040;-80
2022/10/15 11:00:37;;;;;;;33.78;22.25;;;14.40;99.90;;;;;;5061384;28;20032;-80
2022/10/15 11:03:03;;;;;;;30.02;20.55;;;14.40;99.90;;;;;;5060660;28;20040;-79
2022/10/15 11:05:32;;;;;;;29.00;19.08;;;14.40;99.90;;;;;;5075260;28;20048;-78
2022/10/15 11:08:13;;;;;;;29.25;19.63;;;14.40;99.90;;;;;;5073760;28;20047;-77
2022/10/15 11:10:52;;;;;;;27.02;18.45;;;14.50;99.90;;;;;;5062560;28;20085;-81
2022/10/15 11:13:51;;;;;;;26.17;18.20;;;14.50;99.90;;;;;;5089004;28;20440;-80
2022/10/15 11:16:54;;;;;;;26.95;18.60;;;14.40;99.90;;;;;;5073380;28;20047;-79
2022/10/15 11:19:44;;;;;;;25.75;17.85;;;14.50;99.90;;;;;;5070395;28;20036;-80
2022/10/15 11:22:47;;;;;;;26.65;18.08;;;14.50;99.90;;;;;;5057053;28;20395;-80
2022/10/15 11:25:37;;;;;;;21.95;16.33;;;14.70;99.90;;;;;;5060245;28;20053;-77
2022/10/15 11:28:37;;;;;;;23.30;16.27;;;14.70;99.90;;;;;;5072941;28;20127;-79
2022/10/15 11:31:26;;;;;;;26.55;16.13;;;14.90;99.90;;;;;;5066417;28;20032;-79
2022/10/15 11:34:11;;;;;;;23.02;16.45;;;14.90;99.90;;;;;;4959554;28;20054;-76
2022/10/15 11:37:03;;;;;;;23.13;15.60;;;15.00;99.90;;;;;;4980774;28;20050;-76
2022/10/15 11:40:14;;;;;;;23.50;16.30;;;15.00;99.90;;;;;;4976607;28;20069;-78
2022/10/15 11:42:58;;;;;;;26.20;16.63;;;15.10;99.90;;;;;;4944167;29;20455;-79
2022/10/15 11:45:53;;;;;;;24.88;16.42;;;15.20;99.90;;;;;;4945335;28;20065;-79
2022/10/15 11:48:24;;;;;;;22.52;16.15;;;15.10;99.90;;;;;;4939092;29;20043;-79
2022/10/15 11:51:28;;;;;;;23.70;16.02;;;15.20;99.90;;;;;;4938108;29;20054;-79
2022/10/15 11:54:13;;;;;;;27.05;17.52;;;15.30;99.90;;;;;;4919484;29;20463;-78
2022/10/15 11:56:44;;;;;;;25.85;17.20;;;15.20;99.90;;;;;;4937518;29;20512;-80
2022/10/15 11:59:34;;;;;;;23.67;17.17;;;15.40;99.90;;;;;;4954343;28;20119;-80
2022/10/15 12:02:20;;;;;;;24.83;16.65;;;15.20;99.90;;;;;;4936009;29;20043;-78
2022/10/15 12:04:54;;;;;;;26.13;17.45;;;15.20;99.90;;;;;;4937020;28;20149;-77
2022/10/15 12:07:32;;;;;;;24.30;17.85;;;15.30;99.90;;;;;;4922621;29;20545;-81
2022/10/15 12:10:18;;;;;;;21.83;16.98;;;15.40;99.90;;;;;;4923351;28;20145;-77
2022/10/15 12:13:02;;;;;;;23.55;16.77;;;15.40;99.90;;;;;;4977143;28;20074;-79
2022/10/15 12:15:46;;;;;;;22.58;16.77;;;15.40;99.90;;;;;;4977630;28;20066;-84
2022/10/15 12:21:56;;;;;;;28.75;16.50;;;15.50;99.90;;;;;;5077039;28;20780;-77
2022/10/15 12:24:37;;;;;;;23.38;16.30;;;15.40;99.90;;;;;;5056458;28;20066;-76
2022/10/15 12:27:17;;;;;;;23.10;16.50;;;15.30;99.90;;;;;;5052014;28;20071;-80
2022/10/15 12:29:51;;;;;;;22.98;16.70;;;15.20;99.90;;;;;;5038987;28;20556;-81
2022/10/15 12:32:26;;;;;;;22.48;16.23;;;15.30;99.90;;;;;;5053137;28;20055;-79
2022/10/15 12:34:55;;;;;;;22.55;16.42;;;15.40;99.90;;;;;;5055876;28;20037;-78
2022/10/15 12:37:25;;;;;;;21.20;15.15;;;15.30;99.90;;;;;;5055333;28;20062;-78
2022/10/15 12:40:02;;;;;;;21.70;15.05;;;15.40;99.90;;;;;;5054966;28;20075;-80
2022/10/15 12:42:30;;;;;;;25.23;16.02;;;15.40;99.90;;;;;;5060320;28;20063;-76
2022/10/15 12:44:57;;;;;;;22.42;14.10;;;15.30;99.90;;;;;;5070164;28;20434;-79
2022/10/15 12:47:47;;;;;;;19.45;12.82;;;15.40;99.90;;;;;;5062397;28;20086;-77
2022/10/15 12:50:28;;;;;;;19.05;13.70;;;15.40;99.90;;;;;;5058687;28;20036;-79
2022/10/15 12:53:00;;;;;;;17.98;13.73;;;15.30;99.90;;;;;;5070960;28;20071;-81
2022/10/15 12:55:29;;;;;;;16.88;13.63;;;15.30;99.90;;;;;;5068437;28;20111;-77